createdAt,value
2023-03-11T00:00:16.331Z,4.63
2023-03-11T00:02:43.905Z,4.57
2023-03-11T00:05:17.511Z,4.43
2023-03-11T00:07:44.740Z,4.49
2023-03-11T00:10:15.170Z,4.46
2023-03-11T00:12:42.366Z,4.40
2023-03-11T00:15:10.590Z,4.38
2023-03-11T00:17:37.696Z,4.46
2023-03-11T00:20:07.059Z,4.50
2023-03-11T00:22:35.715Z,4.44
2023-03-11T00:25:02.819Z,4.38
2023-03-11T00:27:29.955Z,4.28
2023-03-11T00:29:57.025Z,4.20
2023-03-11T00:32:24.197Z,4.12
2023-03-11T00:34:51.331Z,3.99
2023-03-11T00:37:18.463Z,3.94
2023-03-11T00:39:47.041Z,3.78
2023-03-11T00:42:14.118Z,3.74
2023-03-11T00:44:41.199Z,3.74
2023-03-11T00:47:09.780Z,3.73
2023-03-11T00:49:36.985Z,3.64
2023-03-11T00:52:04.983Z,3.56
2023-03-11T00:54:33.807Z,3.51
2023-03-11T00:57:02.641Z,3.46
2023-03-11T00:59:29.934Z,3.49
2023-03-11T01:01:57.173Z,3.53
2023-03-11T01:04:27.001Z,3.48
2023-03-11T01:06:54.628Z,3.52
2023-03-11T01:09:21.926Z,3.51
2023-03-11T01:11:49.200Z,3.49
2023-03-11T01:14:25.181Z,3.45
2023-03-11T01:16:53.975Z,3.44
2023-03-11T01:19:21.415Z,3.46
2023-03-11T01:21:48.456Z,3.38
2023-03-11T01:24:22.783Z,3.30
2023-03-11T01:26:50.358Z,3.27
2023-03-11T01:29:17.585Z,3.30
2023-03-11T01:31:46.478Z,3.53
2023-03-11T01:34:13.803Z,3.61
2023-03-11T01:36:41.374Z,3.71
2023-03-11T01:39:08.604Z,3.70
2023-03-11T01:41:35.901Z,3.74
2023-03-11T01:44:05.169Z,3.74
2023-03-11T01:46:40.481Z,3.67
2023-03-11T01:49:13.082Z,3.59
2023-03-11T01:51:43.244Z,3.72
2023-03-11T01:54:16.829Z,3.56
2023-03-11T01:56:45.735Z,3.68
2023-03-11T01:59:17.412Z,3.76
2023-03-11T02:01:52.913Z,3.75
2023-03-11T02:04:21.929Z,3.78
2023-03-11T02:06:51.411Z,3.73
2023-03-11T02:09:20.604Z,3.70
2023-03-11T02:11:47.745Z,3.68
2023-03-11T02:14:14.775Z,3.64
2023-03-11T02:16:43.517Z,3.62
2023-03-11T02:19:26.230Z,3.61
2023-03-11T02:21:55.507Z,3.59
2023-03-11T02:24:31.221Z,3.70
2023-03-11T02:27:03.025Z,3.77
2023-03-11T02:29:33.996Z,3.81
2023-03-11T02:32:05.273Z,3.81
2023-03-11T02:34:37.486Z,3.76
2023-03-11T02:37:05.958Z,3.79
2023-03-11T02:39:34.381Z,3.78
2023-03-11T02:42:07.072Z,3.84
2023-03-11T02:44:34.542Z,3.75
2023-03-11T02:47:02.512Z,3.80
2023-03-11T02:49:31.881Z,3.69
2023-03-11T02:51:59.090Z,3.68
2023-03-11T02:54:26.389Z,3.64
2023-03-11T02:56:55.721Z,3.61
2023-03-11T02:59:24.286Z,3.58
2023-03-11T03:01:55.356Z,3.58
2023-03-11T03:04:22.547Z,3.47
2023-03-11T03:06:51.530Z,3.25
2023-03-11T03:09:18.838Z,3.31
2023-03-11T03:11:46.184Z,3.21
2023-03-11T03:14:15.609Z,3.14
2023-03-11T03:16:46.726Z,3.10
2023-03-11T03:19:15.444Z,3.01
2023-03-11T03:21:43.264Z,3.06
2023-03-11T03:24:10.491Z,3.06
2023-03-11T03:26:38.317Z,2.99
2023-03-11T03:29:05.766Z,3.01
2023-03-11T03:31:33.110Z,2.98
2023-03-11T03:34:01.587Z,2.94
2023-03-11T03:36:28.524Z,2.93
2023-03-11T03:38:55.816Z,2.95
2023-03-11T03:41:23.254Z,2.89
2023-03-11T03:43:50.222Z,2.83
2023-03-11T03:46:17.265Z,2.83
2023-03-11T03:48:44.343Z,2.81
2023-03-11T03:51:14.266Z,2.70
2023-03-11T03:53:42.180Z,2.70
2023-03-11T03:56:10.834Z,2.67
2023-03-11T03:58:38.201Z,2.62
2023-03-11T04:01:06.259Z,2.64
2023-03-11T04:03:35.474Z,2.58
2023-03-11T04:06:07.638Z,2.66
2023-03-11T04:08:36.203Z,2.62
2023-03-11T04:11:03.677Z,2.61
2023-03-11T04:13:30.706Z,2.59
2023-03-11T04:15:57.927Z,2.56
2023-03-11T04:18:24.909Z,2.57
2023-03-11T04:20:52.021Z,2.54
2023-03-11T04:23:19.113Z,2.52
2023-03-11T04:25:47.577Z,2.50
2023-03-11T04:28:14.636Z,2.43
2023-03-11T04:30:41.902Z,2.36
2023-03-11T04:33:08.873Z,2.41
2023-03-11T04:35:38.587Z,2.45
2023-03-11T04:38:05.808Z,2.36
2023-03-11T04:40:32.849Z,2.39
2023-03-11T04:43:01.246Z,2.35
2023-03-11T04:45:28.189Z,2.34
2023-03-11T04:47:55.442Z,2.32
2023-03-11T04:50:22.717Z,2.35
2023-03-11T04:52:49.738Z,2.39
2023-03-11T04:55:17.236Z,2.34
2023-03-11T04:57:44.429Z,2.32
2023-03-11T05:00:15.788Z,2.31
2023-03-11T05:03:19.885Z,2.31
2023-03-11T05:05:57.477Z,2.34
2023-03-11T05:08:51.668Z,2.28
2023-03-11T05:11:22.534Z,2.34
2023-03-11T05:13:55.805Z,2.35
2023-03-11T05:16:59.499Z,2.35
2023-03-11T05:19:35.554Z,2.31
2023-03-11T05:22:05.540Z,2.21
2023-03-11T05:25:00.834Z,2.26
2023-03-11T05:28:04.964Z,2.37
2023-03-11T05:30:41.733Z,2.19
2023-03-11T05:33:16.937Z,2.20
2023-03-11T05:35:49.715Z,2.17
2023-03-11T05:38:36.866Z,2.12
2023-03-11T05:41:13.347Z,2.18
2023-03-11T05:43:55.370Z,2.13
2023-03-11T05:46:38.345Z,2.10
2023-03-11T05:49:07.860Z,2.15
2023-03-11T05:51:36.815Z,2.09
2023-03-11T05:54:11.681Z,2.07
2023-03-11T05:56:39.306Z,2.08
2023-03-11T05:59:06.809Z,2.12
2023-03-11T06:01:34.444Z,2.00
2023-03-11T06:04:02.341Z,2.08
2023-03-11T06:06:31.538Z,2.08
2023-03-11T06:08:59.125Z,2.12
2023-03-11T06:11:28.572Z,2.10
2023-03-11T06:13:57.546Z,2.04
2023-03-11T06:16:25.872Z,2.05
2023-03-11T06:19:00.993Z,2.09
2023-03-11T06:21:30.133Z,2.02
2023-03-11T06:23:57.556Z,2.12
2023-03-11T06:26:27.121Z,2.10
2023-03-11T06:28:56.733Z,2.08
2023-03-11T06:31:26.364Z,2.11
2023-03-11T06:33:56.173Z,2.22
2023-03-11T06:36:24.436Z,2.29
2023-03-11T06:38:54.251Z,2.61
2023-03-11T06:41:21.782Z,2.90
2023-03-11T06:43:49.284Z,3.22
2023-03-11T06:46:20.265Z,3.58
2023-03-11T06:48:51.932Z,3.84
2023-03-11T06:51:19.676Z,4.04
2023-03-11T06:53:49.778Z,4.06
2023-03-11T06:56:24.765Z,4.11
2023-03-11T06:59:12.595Z,4.60
2023-03-11T07:01:59.904Z,4.99
2023-03-11T07:04:27.008Z,4.85
2023-03-11T07:06:53.993Z,5.04
2023-03-11T07:09:23.034Z,5.24
2023-03-11T07:11:51.876Z,5.58
2023-03-11T07:14:19.596Z,5.57
2023-03-11T07:16:46.683Z,5.54
2023-03-11T07:19:14.329Z,5.55
2023-03-11T07:21:41.649Z,5.74
2023-03-11T07:24:09.064Z,5.98
2023-03-11T07:26:36.456Z,5.90
2023-03-11T07:29:05.011Z,6.01
2023-03-11T07:31:37.242Z,6.34
2023-03-11T07:34:11.195Z,6.53
2023-03-11T07:36:40.809Z,6.74
2023-03-11T07:39:07.896Z,7.03
2023-03-11T07:41:35.932Z,7.25
2023-03-11T07:44:05.392Z,7.64
2023-03-11T07:46:33.417Z,7.85
2023-03-11T07:49:02.616Z,8.03
2023-03-11T07:51:31.410Z,8.26
2023-03-11T07:54:00.332Z,8.11
2023-03-11T07:56:29.148Z,8.39
2023-03-11T07:58:57.637Z,8.85
2023-03-11T08:01:30.678Z,9.27
2023-03-11T08:03:59.004Z,9.12
2023-03-11T08:06:29.177Z,8.45
2023-03-11T08:08:56.270Z,7.82
2023-03-11T08:11:24.060Z,7.40
2023-03-11T08:13:51.654Z,7.09
2023-03-11T08:16:20.779Z,7.17
2023-03-11T08:18:50.288Z,7.64
2023-03-11T08:21:19.330Z,7.57
2023-03-11T08:23:46.331Z,7.91
2023-03-11T08:26:15.063Z,8.23
2023-03-11T08:28:42.493Z,8.16
2023-03-11T08:31:14.287Z,8.17
2023-03-11T08:33:42.077Z,8.30
2023-03-11T08:36:10.925Z,8.37
2023-03-11T08:38:38.185Z,8.14
2023-03-11T08:41:05.474Z,8.26
2023-03-11T08:43:32.626Z,8.02
2023-03-11T08:46:01.157Z,8.24
2023-03-11T08:48:28.621Z,8.43
2023-03-11T08:50:56.242Z,8.57
2023-03-11T08:53:24.995Z,8.58
2023-03-11T08:55:52.798Z,8.57
2023-03-11T08:58:19.936Z,8.59
2023-03-11T09:00:47.640Z,8.45
2023-03-11T09:03:14.682Z,8.38
2023-03-11T09:07:04.678Z,8.87
2023-03-11T09:09:33.132Z,9.32
2023-03-11T09:12:09.204Z,9.63
2023-03-11T09:14:39.459Z,9.83
2023-03-11T09:17:07.128Z,10.18
2023-03-11T09:19:34.212Z,10.17
2023-03-11T09:22:01.715Z,9.78
2023-03-11T09:24:29.240Z,9.22
2023-03-11T09:26:57.494Z,9.21
2023-03-11T09:29:24.440Z,9.69
2023-03-11T09:31:51.525Z,10.17
2023-03-11T09:34:18.921Z,10.57
2023-03-11T09:36:46.153Z,11.15
2023-03-11T09:39:13.835Z,10.89
2023-03-11T09:41:58.019Z,10.64
2023-03-11T09:44:35.319Z,10.64
2023-03-11T09:47:23.035Z,10.28
2023-03-11T09:50:06.109Z,10.46
2023-03-11T09:52:40.337Z,10.20
2023-03-11T09:55:33.393Z,10.35
2023-03-11T09:58:04.088Z,10.49
2023-03-11T10:00:32.779Z,10.64
2023-03-11T10:03:02.956Z,10.74
2023-03-11T10:05:30.800Z,10.49
2023-03-11T10:08:03.958Z,10.66
2023-03-11T10:10:39.803Z,10.96
2023-03-11T10:13:15.264Z,11.02
2023-03-11T10:15:52.557Z,11.02
2023-03-11T10:18:37.362Z,10.94
2023-03-11T10:21:15.572Z,10.83
2023-03-11T10:23:57.377Z,10.70
2023-03-11T10:26:33.057Z,10.68
2023-03-11T10:29:07.768Z,10.66
2023-03-11T10:31:41.360Z,10.93
2023-03-11T10:34:17.622Z,11.20
2023-03-11T10:36:54.008Z,11.63
2023-03-11T10:39:22.224Z,11.48
2023-03-11T10:41:54.425Z,11.65
2023-03-11T10:44:25.562Z,11.55
2023-03-11T10:46:54.294Z,11.35
2023-03-11T10:49:23.742Z,11.52
2023-03-11T10:51:52.998Z,11.79
2023-03-11T10:54:30.241Z,11.83
2023-03-11T10:56:59.839Z,11.35
2023-03-11T10:59:30.249Z,11.83
2023-03-11T11:02:00.947Z,11.81
2023-03-11T11:04:31.372Z,11.74
2023-03-11T11:06:59.513Z,11.79
2023-03-11T11:09:31.075Z,11.77
2023-03-11T11:12:04.516Z,11.66
2023-03-11T11:14:45.905Z,11.66
2023-03-11T11:17:28.970Z,11.52
2023-03-11T11:19:58.188Z,11.47
2023-03-11T11:22:26.114Z,11.07
2023-03-11T11:24:55.027Z,11.23
2023-03-11T11:27:23.632Z,11.38
2023-03-11T11:30:10.794Z,11.40
2023-03-11T11:32:39.602Z,11.43
2023-03-11T11:35:11.284Z,11.31
2023-03-11T11:37:42.704Z,11.46
2023-03-11T11:40:23.572Z,11.20
2023-03-11T11:42:55.039Z,11.24
2023-03-11T11:45:35.844Z,11.31
2023-03-11T11:48:11.995Z,11.60
2023-03-11T11:50:44.684Z,11.51
2023-03-11T11:53:23.740Z,11.41
2023-03-11T11:55:54.034Z,11.62
2023-03-11T11:58:22.062Z,11.39
2023-03-11T12:01:09.443Z,11.54
2023-03-11T12:03:56.996Z,11.67
2023-03-11T12:06:31.731Z,11.57
2023-03-11T12:09:09.702Z,11.65
2023-03-11T12:11:42.126Z,11.73
2023-03-11T12:14:18.218Z,11.85
2023-03-11T12:16:52.644Z,11.74
2023-03-11T12:19:34.578Z,11.38
2023-03-11T12:22:27.341Z,10.68
2023-03-11T12:25:10.129Z,11.47
2023-03-11T12:27:44.950Z,11.73
2023-03-11T12:30:16.604Z,12.01
2023-03-11T12:32:49.445Z,11.80
2023-03-11T12:35:24.871Z,11.75
2023-03-11T12:38:06.204Z,11.96
2023-03-11T12:40:50.893Z,12.18
2023-03-11T12:43:26.155Z,11.86
2023-03-11T12:45:55.743Z,11.26
2023-03-11T12:48:34.618Z,11.13
2023-03-11T12:51:03.640Z,10.94
2023-03-11T12:53:43.807Z,11.24
2023-03-11T12:56:25.092Z,11.42
2023-03-11T12:59:15.529Z,11.56
2023-03-11T13:01:58.202Z,12.05
2023-03-11T13:04:33.200Z,11.98
2023-03-11T13:07:32.873Z,12.01
2023-03-11T13:10:06.988Z,12.32
2023-03-11T13:12:40.950Z,12.23
2023-03-11T13:15:31.094Z,12.22
2023-03-11T13:18:00.676Z,12.28
2023-03-11T13:20:49.174Z,12.56
2023-03-11T13:23:28.603Z,12.46
2023-03-11T13:26:24.178Z,12.07
2023-03-11T13:29:11.582Z,11.99
2023-03-11T13:31:50.431Z,11.65
2023-03-11T13:34:28.725Z,11.40
2023-03-11T13:37:11.163Z,11.43
2023-03-11T13:40:00.181Z,11.84
2023-03-11T13:42:32.198Z,11.81
2023-03-11T13:45:00.044Z,12.23
2023-03-11T13:47:29.111Z,12.43
2023-03-11T13:50:02.827Z,12.01
2023-03-11T13:52:33.468Z,12.11
2023-03-11T13:55:06.546Z,12.07
2023-03-11T13:57:36.736Z,12.01
2023-03-11T14:00:16.818Z,12.09
2023-03-11T14:02:47.600Z,11.97
2023-03-11T14:05:17.724Z,11.62
2023-03-11T14:07:45.328Z,11.49
2023-03-11T14:10:18.775Z,11.43
2023-03-11T14:12:47.560Z,11.22
2023-03-11T14:15:19.176Z,11.09
2023-03-11T14:17:48.697Z,10.98
2023-03-11T14:20:17.728Z,10.78
2023-03-11T14:22:46.453Z,10.73
2023-03-11T14:25:20.360Z,10.44
2023-03-11T14:27:51.861Z,10.86
2023-03-11T14:30:22.086Z,11.32
2023-03-11T14:32:57.551Z,11.65
2023-03-11T14:35:24.806Z,11.30
2023-03-11T14:37:52.350Z,10.99
2023-03-11T14:40:25.921Z,11.42
2023-03-11T14:42:56.076Z,11.52
2023-03-11T14:45:26.067Z,12.02
2023-03-11T14:47:57.301Z,12.23
2023-03-11T14:50:26.670Z,12.07
2023-03-11T14:52:58.635Z,12.23
2023-03-11T14:55:30.222Z,12.32
2023-03-11T14:58:03.350Z,12.03
2023-03-11T15:00:36.809Z,12.03
2023-03-11T15:03:14.122Z,11.80
2023-03-11T15:05:47.466Z,11.60
2023-03-11T15:08:18.967Z,11.43
2023-03-11T15:11:16.949Z,11.31
2023-03-11T15:13:47.582Z,11.13
2023-03-11T15:16:25.569Z,11.21
2023-03-11T15:18:54.517Z,11.19
2023-03-11T15:21:23.685Z,11.06
2023-03-11T15:23:52.792Z,10.99
2023-03-11T15:26:23.623Z,11.07
2023-03-11T15:28:57.367Z,11.17
2023-03-11T15:31:33.778Z,11.20
2023-03-11T15:34:26.988Z,11.46
2023-03-11T15:37:03.497Z,11.53
2023-03-11T15:39:45.319Z,11.78
2023-03-11T15:42:19.989Z,11.43
2023-03-11T15:45:12.214Z,11.68
2023-03-11T15:47:39.814Z,11.79
2023-03-11T15:50:27.289Z,11.73
2023-03-11T15:52:58.676Z,11.59
2023-03-11T15:55:27.219Z,11.31
2023-03-11T15:58:01.198Z,11.54
2023-03-11T16:00:29.711Z,11.61
2023-03-11T16:02:56.662Z,11.83
2023-03-11T16:05:24.986Z,11.57
2023-03-11T16:07:52.185Z,11.33
2023-03-11T16:10:21.272Z,11.31
2023-03-11T16:12:48.984Z,11.22
2023-03-11T16:15:24.858Z,11.00
2023-03-11T16:17:54.073Z,10.87
2023-03-11T16:20:22.697Z,10.46
2023-03-11T16:22:52.358Z,10.68
2023-03-11T16:25:23.654Z,10.89
2023-03-11T16:27:52.321Z,10.93
2023-03-11T16:30:20.497Z,10.99
2023-03-11T16:32:47.677Z,10.72
2023-03-11T16:35:16.329Z,10.31
2023-03-11T16:37:43.758Z,10.71
2023-03-11T16:40:14.237Z,10.30
2023-03-11T16:42:41.799Z,10.54
2023-03-11T16:45:09.291Z,10.38
2023-03-11T16:47:36.218Z,10.49
2023-03-11T16:50:04.215Z,10.44
2023-03-11T16:52:32.888Z,10.58
2023-03-11T16:54:59.918Z,10.18
2023-03-11T16:57:26.898Z,10.22
2023-03-11T16:59:53.986Z,10.23
2023-03-11T17:02:24.088Z,10.21
2023-03-11T17:04:51.685Z,10.24
2023-03-11T17:07:18.823Z,10.02
2023-03-11T17:09:47.351Z,10.00
2023-03-11T17:12:15.869Z,10.18
2023-03-11T17:14:42.865Z,10.10
2023-03-11T17:17:09.916Z,9.97
2023-03-11T17:19:37.014Z,9.77
2023-03-11T17:22:04.970Z,9.87
2023-03-11T17:24:32.493Z,9.88
2023-03-11T17:27:00.850Z,9.77
2023-03-11T17:29:27.995Z,9.81
2023-03-11T17:31:55.110Z,9.88
2023-03-11T17:34:22.706Z,9.86
2023-03-11T17:36:49.981Z,9.72
2023-03-11T17:39:16.983Z,9.55
2023-03-11T17:41:44.106Z,9.41
2023-03-11T17:44:12.965Z,9.32
2023-03-11T17:46:40.883Z,9.33
2023-03-11T17:49:12.620Z,9.16
2023-03-11T17:51:39.668Z,9.07
2023-03-11T17:54:06.816Z,8.97
2023-03-11T17:56:33.958Z,8.91
2023-03-11T17:59:00.961Z,8.83
2023-03-11T18:01:29.970Z,8.87
2023-03-11T18:03:57.333Z,8.78
2023-03-11T18:06:24.751Z,8.72
2023-03-11T18:08:52.316Z,8.71
2023-03-11T18:11:21.199Z,8.76
2023-03-11T18:13:48.400Z,8.70
2023-03-11T18:16:17.289Z,8.53
2023-03-11T18:18:46.295Z,8.43
2023-03-11T18:21:15.864Z,8.34
2023-03-11T18:23:43.365Z,8.26
2023-03-11T18:26:12.879Z,8.20
2023-03-11T18:28:40.058Z,8.41
2023-03-11T18:31:07.818Z,8.32
2023-03-11T18:33:35.347Z,8.36
2023-03-11T18:36:14.290Z,8.32
2023-03-11T18:38:41.401Z,8.30
2023-03-11T18:41:08.470Z,8.26
2023-03-11T18:43:35.973Z,8.30
2023-03-11T18:46:07.917Z,8.31
2023-03-11T18:48:34.873Z,8.41
2023-03-11T18:51:01.924Z,8.33
2023-03-11T18:53:30.418Z,8.39
2023-03-11T18:56:02.201Z,8.44
2023-03-11T18:58:29.831Z,8.41
2023-03-11T19:01:04.100Z,8.35
2023-03-11T19:03:31.324Z,8.58
2023-03-11T19:05:59.725Z,8.64
2023-03-11T19:08:27.038Z,8.69
2023-03-11T19:10:55.580Z,8.85
2023-03-11T19:13:22.988Z,8.66
2023-03-11T19:15:50.235Z,8.45
2023-03-11T19:18:17.291Z,8.60
2023-03-11T19:20:44.361Z,8.74
2023-03-11T19:23:11.510Z,8.46
2023-03-11T19:25:38.685Z,8.84
2023-03-11T19:28:07.012Z,9.01
2023-03-11T19:30:33.928Z,8.95
2023-03-11T19:33:01.006Z,9.03
2023-03-11T19:35:28.290Z,8.96
2023-03-11T19:37:57.380Z,8.81
2023-03-11T19:40:25.194Z,8.91
2023-03-11T19:42:52.677Z,8.79
2023-03-11T19:45:21.142Z,8.88
2023-03-11T19:47:51.483Z,8.90
2023-03-11T19:50:19.388Z,8.90
2023-03-11T19:52:46.396Z,8.64
2023-03-11T19:55:13.446Z,8.56
2023-03-11T19:57:40.600Z,8.70
2023-03-11T20:00:09.555Z,8.78
2023-03-11T20:02:38.125Z,8.85
2023-03-11T20:05:06.205Z,8.73
2023-03-11T20:07:33.882Z,8.47
2023-03-11T20:10:00.990Z,8.67
2023-03-11T20:12:28.054Z,8.64
2023-03-11T20:14:55.188Z,8.29
2023-03-11T20:17:22.355Z,8.58
2023-03-11T20:19:50.828Z,8.59
2023-03-11T20:22:17.855Z,8.52
2023-03-11T20:24:45.471Z,8.60
2023-03-11T20:27:12.553Z,8.49
2023-03-11T20:29:39.583Z,8.68
2023-03-11T20:32:06.736Z,8.64
2023-03-11T20:34:33.727Z,8.54
2023-03-11T20:37:02.182Z,8.57
2023-03-11T20:39:29.215Z,8.64
2023-03-11T20:41:58.058Z,8.65
2023-03-11T20:44:25.220Z,8.26
2023-03-11T20:46:54.893Z,8.70
2023-03-11T20:49:22.096Z,8.48
2023-03-11T20:51:49.210Z,8.30
2023-03-11T20:54:17.745Z,8.53
2023-03-11T20:56:44.961Z,8.64
2023-03-11T20:59:14.150Z,8.56
2023-03-11T21:01:41.154Z,8.56
2023-03-11T21:04:08.378Z,8.54
2023-03-11T21:06:38.747Z,8.60
2023-03-11T21:09:07.727Z,8.58
2023-03-11T21:11:36.254Z,8.52
2023-03-11T21:14:04.092Z,8.52
2023-03-11T21:16:31.292Z,8.77
2023-03-11T21:18:58.934Z,8.65
2023-03-11T21:21:26.103Z,8.66
2023-03-11T21:23:53.346Z,8.25
2023-03-11T21:26:20.393Z,8.38
2023-03-11T21:28:48.972Z,8.55
2023-03-11T21:31:18.035Z,8.51
2023-03-11T21:33:45.272Z,8.52
2023-03-11T21:36:13.585Z,8.52
2023-03-11T21:38:40.958Z,8.53
2023-03-11T21:41:10.668Z,8.53
2023-03-11T21:43:38.911Z,8.66
2023-03-11T21:46:08.613Z,8.58
2023-03-11T21:48:36.066Z,8.66
2023-03-11T21:51:03.351Z,8.60
2023-03-11T21:53:31.307Z,8.66
2023-03-11T21:55:59.881Z,8.60
2023-03-11T21:58:27.446Z,8.61
2023-03-11T22:00:54.450Z,8.33
2023-03-11T22:03:23.048Z,8.48
2023-03-11T22:05:56.310Z,8.37
2023-03-11T22:08:23.406Z,8.75
2023-03-11T22:10:50.614Z,8.41
2023-03-11T22:13:17.843Z,8.43
2023-03-11T22:15:45.107Z,8.51
2023-03-11T22:18:12.402Z,8.46
2023-03-11T22:20:41.987Z,8.38
2023-03-11T22:23:09.645Z,8.55
2023-03-11T22:25:36.931Z,8.38
2023-03-11T22:28:04.563Z,8.37
2023-03-11T22:30:31.781Z,8.37
2023-03-11T22:32:58.828Z,8.09
2023-03-11T22:35:25.789Z,7.97
2023-03-11T22:37:54.228Z,8.40
2023-03-11T22:40:21.336Z,8.38
2023-03-11T22:42:48.314Z,8.37
2023-03-11T22:45:15.386Z,8.45
2023-03-11T22:47:42.440Z,8.27
2023-03-11T22:50:10.520Z,8.41
2023-03-11T22:52:37.574Z,8.29
2023-03-11T22:55:06.751Z,8.60
2023-03-11T22:57:38.838Z,8.58
2023-03-11T23:00:17.169Z,8.36
2023-03-11T23:02:44.768Z,8.39
2023-03-11T23:05:12.133Z,8.52
2023-03-11T23:07:39.372Z,8.38
2023-03-11T23:10:11.080Z,8.48
2023-03-11T23:12:38.396Z,8.64
2023-03-11T23:15:08.122Z,8.67
2023-03-11T23:17:35.129Z,8.66
2023-03-11T23:20:03.418Z,8.36
2023-03-11T23:22:30.446Z,8.38
2023-03-11T23:25:01.504Z,8.01
2023-03-11T23:27:30.395Z,8.15
2023-03-11T23:29:57.403Z,8.40
2023-03-11T23:32:24.496Z,8.25
2023-03-11T23:34:51.491Z,8.01
2023-03-11T23:37:18.443Z,8.09
2023-03-11T23:39:45.358Z,7.87
2023-03-11T23:42:25.047Z,8.02
2023-03-11T23:44:54.331Z,7.66
2023-03-11T23:47:21.539Z,7.86
2023-03-11T23:49:48.545Z,8.14
2023-03-11T23:52:16.004Z,7.96
2023-03-11T23:54:42.989Z,7.83
2023-03-11T23:57:10.051Z,7.83
2023-03-11T23:59:37.098Z,8.25
